Terminal Aerodrome Forecast
Issued by NWS Sterling, VA

Current Version | Previous Version | Text Only | Print | Product List | Glossary Off
Versions: 1 2 3 4 5 6 7 8 9 10 11 12 13 14 15 16 17 18 19 20 21 22 23 24 25

341
FTUS41 KLWX 010458 AAB
TAFIAD
TAF AMD
KIAD 010458Z 0105/0206 19004KT P6SM FEW008 BKN011 OVC050
      TEMPO 0105/0107 3SM -SHRA
     FM010700 27009KT P6SM BKN070
     FM010800 28010KT P6SM SCT070
     FM020300 27006KT P6SM SKC=

USA.gov is the U.S. government's official web portal to all federal, state and local government web resources and services.